METAR Data
IDs: Format: Raw Decoded Include TAF

Data at: 1627 UTC 04 Aug 2021

KRHV 041547Z VRB04KT 8SM SCT008 BKN012 16/12 A3000